createdAt,value
2023-04-25T05:17:53.084Z,547.5
2023-04-25T05:18:53.091Z,697.5
2023-04-25T05:19:53.132Z,790.857
2023-04-25T05:20:53.176Z,732.5
2023-04-25T05:21:53.202Z,751.714
2023-04-25T05:22:53.245Z,703.357
2023-04-25T05:23:53.684Z,667.5
2023-04-25T05:24:55.755Z,645
2023-04-25T05:25:53.400Z,627.5
2023-04-25T05:26:53.425Z,550.857
2023-04-25T05:27:53.517Z,562.5
2023-04-25T05:28:53.535Z,695
2023-04-25T05:29:53.573Z,837.5
2023-04-25T05:30:53.652Z,1013.36
2023-04-25T05:31:53.659Z,1034.21
2023-04-25T05:32:53.690Z,1075.86
2023-04-25T05:33:53.706Z,902.5
2023-04-25T05:34:53.839Z,755
2023-04-25T05:35:53.800Z,732.5
2023-04-25T05:36:53.815Z,844.214
2023-04-25T05:37:53.881Z,788.357
2023-04-25T05:38:53.921Z,719.214
2023-04-25T05:39:53.943Z,775.857
2023-04-25T05:40:53.979Z,739.214
2023-04-25T05:41:54.025Z,890
2023-04-25T05:42:54.058Z,921.714
2023-04-25T05:43:56.234Z,1019.21
2023-04-25T05:44:54.135Z,1105.86
2023-04-25T05:45:54.215Z,1386.71
2023-04-25T05:46:54.224Z,1527.5
2023-04-25T05:47:54.365Z,1372.5
2023-04-25T05:48:54.295Z,1343.36
2023-04-25T05:49:54.332Z,1338.36
2023-04-25T05:50:54.411Z,1382.5
2023-04-25T05:51:54.418Z,1437.5
2023-04-25T05:52:54.455Z,1497.5
2023-04-25T05:53:54.506Z,1470
2023-04-25T05:54:54.534Z,1487.5
2023-04-25T05:55:54.581Z,1592.5
2023-04-25T05:56:54.612Z,1625
2023-04-25T05:57:54.663Z,1454.21
2023-04-25T05:58:54.702Z,1225
2023-04-25T05:59:54.729Z,1179.21
2023-04-25T06:00:54.772Z,1084.21
2023-04-25T06:01:54.850Z,1266.71
2023-04-25T06:02:54.981Z,1159.21
2023-04-25T06:03:55.270Z,1147.5
2023-04-25T06:04:55.112Z,1281.71
2023-04-25T06:05:55.098Z,1466.71
2023-04-25T06:06:55.003Z,1415.86
2023-04-25T06:07:55.046Z,1500.86
2023-04-25T06:08:55.083Z,1331.71
2023-04-25T06:09:55.134Z,879.214
2023-04-25T06:10:55.175Z,807.5
2023-04-25T06:11:55.207Z,887.5
2023-04-25T06:12:55.250Z,816.714
2023-04-25T06:13:55.305Z,780
2023-04-25T06:14:55.325Z,644.214
2023-04-25T06:15:55.436Z,693.357
2023-04-25T06:16:55.409Z,816.714
2023-04-25T06:17:55.506Z,1042.5
2023-04-25T06:18:55.471Z,1220.86
2023-04-25T06:19:55.505Z,1285
2023-04-25T06:20:55.550Z,1649.21
2023-04-25T06:21:55.587Z,1635.86
2023-04-25T06:22:55.621Z,1454.21
2023-04-25T06:23:55.660Z,1410.86
2023-04-25T06:24:55.700Z,1236.71
2023-04-25T06:25:55.761Z,1004.21
2023-04-25T06:26:55.781Z,907.5
2023-04-25T06:27:55.812Z,786.714
2023-04-25T06:28:55.918Z,870
2023-04-25T06:29:55.903Z,886.714
2023-04-25T06:30:55.963Z,1003.36
2023-04-25T06:31:55.963Z,1186.71
2023-04-25T06:32:56.053Z,1168.36
2023-04-25T06:33:56.054Z,977.5
2023-04-25T06:34:56.088Z,750
2023-04-25T06:35:56.154Z,724.214
2023-04-25T06:36:56.165Z,816.714
2023-04-25T06:37:56.195Z,932.5
2023-04-25T06:38:56.241Z,1107.5
2023-04-25T06:39:56.276Z,949.214
2023-04-25T06:40:56.355Z,937.5
2023-04-25T06:41:56.347Z,821.714
2023-04-25T06:42:56.389Z,934.214
2023-04-25T06:43:56.436Z,813.357
2023-04-25T06:44:56.472Z,762.5
2023-04-25T06:45:56.516Z,704.214
2023-04-25T06:46:56.593Z,725
2023-04-25T06:47:56.647Z,686.714
2023-04-25T06:48:56.675Z,715.857
2023-04-25T06:49:56.678Z,682.5
2023-04-25T06:50:56.719Z,773.357
2023-04-25T06:51:56.757Z,756.714
2023-04-25T06:52:56.793Z,659.214
2023-04-25T06:53:56.818Z,567.5
2023-04-25T06:54:56.877Z,575
2023-04-25T06:55:56.907Z,500
2023-04-25T06:56:56.943Z,437.5
2023-04-25T06:57:56.986Z,444.214
2023-04-25T06:58:57.052Z,623.357
2023-04-25T06:59:57.345Z,664.214
2023-04-25T07:00:57.213Z,763.357
2023-04-25T07:01:57.147Z,740
2023-04-25T07:02:57.309Z,906.714
2023-04-25T07:03:57.381Z,955
2023-04-25T07:04:57.350Z,947.5
2023-04-25T07:05:57.313Z,1000.86
2023-04-25T07:06:57.376Z,1040.86
2023-04-25T07:07:57.398Z,1290
2023-04-25T07:08:57.443Z,1423.36
2023-04-25T07:09:57.474Z,1421.71
2023-04-25T07:10:57.514Z,1462.5
2023-04-25T07:11:57.561Z,1612.5
2023-04-25T07:12:57.601Z,1915
2023-04-25T07:13:57.645Z,1965
2023-04-25T07:14:57.680Z,2005
2023-04-25T07:15:57.704Z,1945
2023-04-25T07:16:57.796Z,2024.21
2023-04-25T07:17:57.815Z,2149.21
2023-04-25T07:18:57.827Z,2142.5
2023-04-25T07:19:57.864Z,2206.71
2023-04-25T07:20:57.913Z,2282.5
2023-04-25T07:21:57.949Z,1947.5
2023-04-25T07:22:57.988Z,2155
2023-04-25T07:23:58.036Z,1863.36
2023-04-25T07:24:58.091Z,1870.86
2023-04-25T07:25:58.106Z,1712.5
2023-04-25T07:26:58.160Z,1242.5
2023-04-25T07:27:58.207Z,1182.5
2023-04-25T07:28:58.232Z,1098.36
2023-04-25T07:29:58.268Z,1240
2023-04-25T07:30:58.314Z,1614.21
2023-04-25T07:31:58.402Z,1807.5
2023-04-25T07:32:58.440Z,1895.86
2023-04-25T07:33:59.875Z,1856.71
2023-04-25T07:34:58.455Z,1716.71
2023-04-25T07:35:58.500Z,2043.36
2023-04-25T07:36:58.539Z,2345
2023-04-25T07:37:58.572Z,3556.71
2023-04-25T07:38:58.608Z,3159.21
2023-04-25T07:39:58.642Z,3254.21
2023-04-25T07:40:58.690Z,3270.86
2023-04-25T07:41:58.718Z,3157.5
2023-04-25T07:42:58.769Z,3688.36
2023-04-25T07:43:58.803Z,3137.5
2023-04-25T07:44:58.853Z,3170.86
2023-04-25T07:45:58.907Z,2785.86
2023-04-25T07:46:58.926Z,2468.36
2023-04-25T07:47:59.024Z,2255
2023-04-25T07:48:59.017Z,2429.21
2023-04-25T07:49:59.092Z,2490
2023-04-25T07:50:59.093Z,2300
2023-04-25T07:51:59.133Z,2203.36
2023-04-25T07:52:59.179Z,2327.5
2023-04-25T07:53:59.210Z,2518.36
2023-04-25T07:54:59.254Z,2209.21
2023-04-25T07:55:59.289Z,1820
2023-04-25T07:56:59.335Z,1915.86
2023-04-25T07:57:59.379Z,3671.71
2023-04-25T07:58:59.418Z,6033.36
2023-04-25T07:59:59.456Z,6697.5
2023-04-25T08:00:59.491Z,5862.5
2023-04-25T08:01:59.534Z,6147.5
2023-04-25T08:02:59.698Z,5897.5
2023-04-25T08:03:59.888Z,5103.36
2023-04-25T08:04:59.784Z,4704.21
2023-04-25T08:05:59.911Z,4880.86
2023-04-25T08:06:59.743Z,5340.86
2023-04-25T08:07:59.775Z,6500.86
2023-04-25T08:08:59.842Z,6061.71
2023-04-25T08:09:59.858Z,4743.36
2023-04-25T08:10:59.898Z,3839.21
2023-04-25T08:11:59.938Z,3636.71
2023-04-25T08:12:59.974Z,3545
2023-04-25T08:14:00.052Z,3435
2023-04-25T08:15:00.040Z,3660.86
2023-04-25T08:16:00.247Z,4298.36
2023-04-25T08:17:00.150Z,4704.21
2023-04-25T08:18:00.253Z,4077.5
2023-04-25T08:19:00.238Z,4379.21
2023-04-25T08:20:00.243Z,5814.21
2023-04-25T08:21:00.278Z,7885.86
2023-04-25T08:22:00.310Z,9182.5
2023-04-25T08:23:00.348Z,9929.21
2023-04-25T08:24:00.420Z,8345.86
2023-04-25T08:25:00.444Z,7472.5
2023-04-25T08:26:00.483Z,7482.5
2023-04-25T08:27:00.512Z,7647.5
2023-04-25T08:28:00.649Z,8295.86
2023-04-25T08:29:00.587Z,9235.86
2023-04-25T08:30:00.617Z,9968.36
2023-04-25T08:31:00.794Z,11983.4
2023-04-25T08:32:00.692Z,9232.5
2023-04-25T08:33:00.854Z,12235
2023-04-25T08:34:00.776Z,13920
2023-04-25T08:35:00.829Z,12447.5
2023-04-25T08:36:00.858Z,9082.5
2023-04-25T08:37:00.895Z,8605.86
2023-04-25T08:38:00.926Z,9145
2023-04-25T08:39:01.000Z,9731.71
2023-04-25T08:40:01.017Z,9632.5
2023-04-25T08:41:01.057Z,8828.36
2023-04-25T08:42:01.100Z,7809.21
2023-04-25T08:43:01.136Z,7670
2023-04-25T08:44:01.190Z,9248.36
2023-04-25T08:45:01.597Z,8438.36
2023-04-25T08:46:01.248Z,9324.21
2023-04-25T08:47:01.355Z,10161.7
2023-04-25T08:48:01.351Z,9556.71
2023-04-25T08:49:01.420Z,8911.71
2023-04-25T08:50:01.432Z,8112.5
2023-04-25T08:51:01.436Z,8553.36
2023-04-25T08:52:01.482Z,12455.9
2023-04-25T08:53:01.516Z,13850
2023-04-25T08:54:30.886Z,11357.5
2023-04-25T08:55:01.596Z,10213.4
2023-04-25T08:56:01.639Z,9992.5
2023-04-25T08:57:01.689Z,6554.21
2023-04-25T08:58:01.716Z,3052.5
2023-04-25T08:59:01.790Z,3958.36
2023-04-25T09:00:01.808Z,3192.5
2023-04-25T09:01:01.887Z,3610
2023-04-25T09:02:02.114Z,2831.71
2023-04-25T09:03:02.106Z,3270
2023-04-25T09:04:02.154Z,5005.86
2023-04-25T09:05:01.996Z,6315
2023-04-25T09:06:02.043Z,7198.36
2023-04-25T09:07:02.075Z,7205.86
2023-04-25T09:08:02.124Z,6775
2023-04-25T09:09:02.146Z,6066.71
2023-04-25T09:10:02.193Z,6510
2023-04-25T09:11:02.236Z,7284.21
2023-04-25T09:12:02.276Z,4527.5
2023-04-25T09:13:02.326Z,2767.5
2023-04-25T09:14:02.606Z,2215.86
2023-04-25T09:15:02.408Z,2341.71
2023-04-25T09:16:02.589Z,3432.5
2023-04-25T09:17:02.693Z,2988.36
2023-04-25T09:18:02.574Z,2635.86
2023-04-25T09:19:02.561Z,2116.71
2023-04-25T09:20:02.606Z,2272.5
2023-04-25T09:21:07.511Z,3151.71
2023-04-25T09:22:02.681Z,4373.36
2023-04-25T09:23:02.759Z,5354.21
2023-04-25T09:24:02.773Z,6712.5
2023-04-25T09:25:02.830Z,6272.5
2023-04-25T09:26:02.885Z,5081.71
2023-04-25T09:27:02.921Z,6120
2023-04-25T09:28:02.951Z,5401.71
2023-04-25T09:29:02.981Z,4405.86
2023-04-25T09:30:03.058Z,4728.36
2023-04-25T09:31:03.100Z,5081.71
2023-04-25T09:32:03.158Z,5151.71
2023-04-25T09:33:03.186Z,4790.86
2023-04-25T09:34:03.477Z,5368.36
2023-04-25T09:35:03.211Z,4810
2023-04-25T09:36:03.274Z,5275
2023-04-25T09:37:03.298Z,5765
2023-04-25T09:38:03.345Z,6150
2023-04-25T09:39:03.391Z,6143.36
2023-04-25T09:40:03.440Z,5863.36
2023-04-25T09:41:03.465Z,6061.71
2023-04-25T09:42:03.494Z,5821.71
2023-04-25T09:43:03.535Z,5804.21
2023-04-25T09:44:04.030Z,5328.36
2023-04-25T09:45:03.615Z,5565.86
2023-04-25T09:46:03.678Z,5669.21
2023-04-25T09:47:03.716Z,6774.21
2023-04-25T09:48:03.817Z,7257.5
2023-04-25T09:49:03.788Z,6878.36
2023-04-25T09:50:03.824Z,5819.21
2023-04-25T09:51:03.924Z,5640.86
2023-04-25T09:52:03.916Z,6111.71
2023-04-25T09:53:03.996Z,5740
2023-04-25T09:54:03.981Z,5113.36
2023-04-25T09:55:04.021Z,3982.5
2023-04-25T09:56:04.055Z,4608.36
2023-04-25T09:57:04.111Z,5016.71
2023-04-25T09:58:04.168Z,6067.5
2023-04-25T09:59:04.167Z,5875
2023-04-25T10:00:04.245Z,4713.36
2023-04-25T10:01:04.282Z,4590.86
2023-04-25T10:02:04.297Z,4844.21
2023-04-25T10:03:04.440Z,4565
2023-04-25T10:04:04.810Z,4211.71
2023-04-25T10:05:04.519Z,4266.71
2023-04-25T10:06:04.460Z,4074.21
2023-04-25T10:07:04.492Z,4809.21
2023-04-25T10:08:04.532Z,4987.5
2023-04-25T10:09:04.567Z,5514.21
2023-04-25T10:10:05.056Z,5144.21
2023-04-25T10:11:04.655Z,5184.21
2023-04-25T10:12:04.696Z,5250.86
2023-04-25T10:13:04.727Z,4336.71
2023-04-25T10:14:04.757Z,4506.71
2023-04-25T10:15:04.808Z,4986.71
2023-04-25T10:16:04.887Z,5233.36
2023-04-25T10:17:04.899Z,5265
2023-04-25T10:18:04.963Z,5657.5
2023-04-25T10:19:04.971Z,5998.36
2023-04-25T10:20:05.008Z,5703.36
2023-04-25T10:21:05.055Z,5346.71
2023-04-25T10:22:05.090Z,5066.71
2023-04-25T10:23:05.143Z,4235
2023-04-25T10:24:05.189Z,4110.86
2023-04-25T10:25:05.344Z,4018.36
2023-04-25T10:26:05.266Z,4207.5
2023-04-25T10:27:05.299Z,4988.36
2023-04-25T10:28:05.346Z,6024.21
2023-04-25T10:29:05.375Z,5599.21
2023-04-25T10:30:05.554Z,5022.5
2023-04-25T10:31:05.590Z,4650.86
2023-04-25T10:32:05.604Z,4262.5
2023-04-25T10:33:05.540Z,4678.36
2023-04-25T10:34:05.564Z,4233.36
2023-04-25T10:35:05.620Z,3503.36
2023-04-25T10:36:05.653Z,4016.71
2023-04-25T10:37:05.689Z,3815.86
2023-04-25T10:38:05.808Z,3684.21
2023-04-25T10:39:05.772Z,3705
2023-04-25T10:40:05.798Z,4746.71
2023-04-25T10:41:05.843Z,4898.36
2023-04-25T10:42:05.871Z,5866.71
2023-04-25T10:43:05.917Z,6115.86
2023-04-25T10:44:05.956Z,5297.5
2023-04-25T10:45:05.997Z,5000.86
2023-04-25T10:46:06.069Z,4825.86
2023-04-25T10:47:06.162Z,4798.36
2023-04-25T10:48:06.172Z,5881.71
2023-04-25T10:49:06.163Z,5826.71
2023-04-25T10:50:06.209Z,4448.36
2023-04-25T10:51:06.236Z,2980
2023-04-25T10:52:06.270Z,3090
2023-04-25T10:53:06.306Z,2825
2023-04-25T10:54:06.363Z,2385
2023-04-25T10:55:06.392Z,2065
2023-04-25T10:56:08.199Z,1875.86
2023-04-25T10:57:06.470Z,1525.86
2023-04-25T10:58:06.524Z,1368.36
2023-04-25T10:59:06.554Z,1345
2023-04-25T11:00:06.609Z,1409.21
2023-04-25T11:01:06.678Z,1590
2023-04-25T11:02:06.775Z,1838.36
2023-04-25T11:03:06.790Z,1930.86
2023-04-25T11:04:07.005Z,2078.36
2023-04-25T11:05:06.794Z,2320.86
2023-04-25T11:06:06.823Z,3177.5
2023-04-25T11:07:07.949Z,3033.36
2023-04-25T11:08:08.332Z,2753.36
2023-04-25T11:09:06.941Z,2827.5
2023-04-25T11:10:06.981Z,2635
2023-04-25T11:11:07.014Z,2445
2023-04-25T11:12:07.057Z,2357.5
2023-04-25T11:13:07.104Z,2475.86
2023-04-25T11:14:07.136Z,2494.21
2023-04-25T11:15:07.194Z,2510
2023-04-25T11:16:12.674Z,2605
2023-04-25T11:17:07.325Z,2877.5
2023-04-25T11:18:08.360Z,3239.21
2023-04-25T11:19:07.342Z,3820
2023-04-25T11:20:07.392Z,4010.86
2023-04-25T11:21:07.444Z,4373.36
2023-04-25T11:22:07.474Z,4759.21
2023-04-25T11:23:07.521Z,4254.21
2023-04-25T11:24:07.556Z,4371.71
2023-04-25T11:25:07.598Z,4130.86
2023-04-25T11:26:07.640Z,4277.5
2023-04-25T11:27:07.683Z,4373.36
2023-04-25T11:28:07.725Z,4700.86
2023-04-25T11:29:07.750Z,4924.21
2023-04-25T11:30:07.795Z,4618.36
2023-04-25T11:31:07.832Z,4347.5
2023-04-25T11:32:07.934Z,4283.36
2023-04-25T11:33:07.928Z,4232.5
2023-04-25T11:34:07.936Z,4114.21
2023-04-25T11:35:07.996Z,4121.71
2023-04-25T11:36:08.020Z,3820
2023-04-25T11:37:08.067Z,3961.71
2023-04-25T11:38:08.102Z,4270
2023-04-25T11:39:08.140Z,4450.86
2023-04-25T11:40:08.196Z,4693.36
2023-04-25T11:41:08.217Z,4781.71
2023-04-25T11:42:11.155Z,4721.71
2023-04-25T11:43:08.291Z,4965.86
2023-04-25T11:44:08.348Z,5066.71
2023-04-25T11:45:08.366Z,4339.21
2023-04-25T11:46:08.511Z,3658.36
2023-04-25T11:47:08.450Z,3229.21
2023-04-25T11:48:08.540Z,3371.71
2023-04-25T11:49:08.536Z,3549.21
2023-04-25T11:50:08.592Z,3962.5
2023-04-25T11:51:08.597Z,4601.71
2023-04-25T11:52:08.720Z,5065
2023-04-25T11:53:08.686Z,4981.71
2023-04-25T11:54:08.724Z,4775.86
2023-04-25T11:55:09.721Z,4774.21
2023-04-25T11:56:08.813Z,4314.21
2023-04-25T11:57:08.839Z,4045
2023-04-25T11:58:08.864Z,3792.5
2023-04-25T11:59:09.138Z,3292.5
2023-04-25T12:00:08.965Z,3265
2023-04-25T12:01:09.014Z,3307.5
2023-04-25T12:02:09.039Z,3420
2023-04-25T12:03:09.223Z,3686.71
2023-04-25T12:04:09.425Z,4155
2023-04-25T12:05:27.160Z,4692.5
2023-04-25T12:06:09.394Z,4865.86
2023-04-25T12:07:09.254Z,5091.71
2023-04-25T12:08:09.287Z,5186.71
2023-04-25T12:09:09.320Z,5147.5
2023-04-25T12:10:09.374Z,5230
2023-04-25T12:11:09.422Z,5267.5
2023-04-25T12:12:09.445Z,5271.71
2023-04-25T12:13:09.478Z,5104.21
2023-04-25T12:14:09.515Z,5001.71
2023-04-25T12:15:09.538Z,4894.21
2023-04-25T12:16:09.638Z,4653.36
2023-04-25T12:17:09.683Z,4286.71
2023-04-25T12:18:09.680Z,3895.86
2023-04-25T12:19:09.720Z,3615
2023-04-25T12:20:09.813Z,3642.5
2023-04-25T12:21:09.805Z,3643.36
2023-04-25T12:22:09.836Z,3656.71
2023-04-25T12:23:09.887Z,3645
2023-04-25T12:24:09.921Z,3583.36
2023-04-25T12:25:09.977Z,3554.21
2023-04-25T12:26:10.001Z,3585
2023-04-25T12:27:10.070Z,3752.5
2023-04-25T12:28:10.081Z,3372.5
2023-04-25T12:29:10.116Z,3259.21
2023-04-25T12:30:10.181Z,2985
2023-04-25T12:31:10.198Z,2637.5
2023-04-25T12:32:10.236Z,2443.36
2023-04-25T12:33:10.319Z,2419.21
2023-04-25T12:34:10.313Z,2268.36
2023-04-25T12:35:10.355Z,2212.5
2023-04-25T12:36:10.408Z,2175.86
2023-04-25T12:37:10.453Z,2352.5
2023-04-25T12:38:10.487Z,2647.5
2023-04-25T12:39:10.532Z,2844.21
2023-04-25T12:40:10.564Z,2940.86
2023-04-25T12:41:10.601Z,3226.71
2023-04-25T12:42:10.655Z,3419.21
2023-04-25T12:43:10.697Z,3741.71
2023-04-25T12:44:10.786Z,4139.21
2023-04-25T12:45:10.783Z,4288.36
2023-04-25T12:46:10.849Z,4037.5
2023-04-25T12:47:11.068Z,4064.21
2023-04-25T12:48:10.964Z,4248.36
2023-04-25T12:49:18.546Z,4462.5
2023-04-25T12:50:10.987Z,4459.21
2023-04-25T12:51:11.035Z,4390.86
2023-04-25T12:52:11.066Z,4177.5
2023-04-25T12:53:11.098Z,3713.36
2023-04-25T12:54:11.148Z,3419.21
2023-04-25T12:55:11.184Z,3139.21
2023-04-25T12:56:11.232Z,2865
2023-04-25T12:57:11.255Z,2544.21
2023-04-25T12:58:11.299Z,2610.86
2023-04-25T12:59:11.334Z,2765.86
2023-04-25T13:00:11.371Z,2890.86
2023-04-25T13:01:11.448Z,2800.86
2023-04-25T13:02:11.532Z,2658.36
2023-04-25T13:03:11.613Z,2800.86
2023-04-25T13:04:11.661Z,3237.5
2023-04-25T13:05:11.583Z,3932.5
2023-04-25T13:06:11.608Z,4243.36
2023-04-25T13:07:11.664Z,4141.71
2023-04-25T13:08:11.680Z,3932.5
2023-04-25T13:09:11.728Z,3775.86
2023-04-25T13:10:11.791Z,3888.36
2023-04-25T13:11:11.801Z,4151.71
2023-04-25T13:12:11.846Z,4115.86
2023-04-25T13:13:11.877Z,3753.36
2023-04-25T13:14:11.918Z,3175
2023-04-25T13:15:12.000Z,3247.5
2023-04-25T13:16:12.085Z,3245
2023-04-25T13:17:12.038Z,3520
2023-04-25T13:18:12.138Z,3506.71
2023-04-25T13:19:12.127Z,3587.5
2023-04-25T13:20:12.187Z,3736.71
2023-04-25T13:21:12.186Z,3020
2023-04-25T13:22:12.251Z,2523.36
2023-04-25T13:23:12.253Z,2401.71
2023-04-25T13:24:12.302Z,2670.86
2023-04-25T13:25:12.333Z,3419.21
2023-04-25T13:26:12.381Z,3635.86
2023-04-25T13:27:12.426Z,3523.36
2023-04-25T13:28:12.462Z,3383.36
2023-04-25T13:29:12.494Z,3553.36
2023-04-25T13:30:12.537Z,3852.5
2023-04-25T13:31:12.598Z,3861.71
2023-04-25T13:32:12.706Z,3259.21
2023-04-25T13:33:12.725Z,2960.86
2023-04-25T13:34:12.701Z,3130.86
2023-04-25T13:35:12.755Z,3544.21
2023-04-25T13:36:12.781Z,3260
2023-04-25T13:37:12.830Z,3476.71
2023-04-25T13:38:12.870Z,3700
2023-04-25T13:39:12.903Z,3526.71
2023-04-25T13:40:12.965Z,3307.5
2023-04-25T13:41:13.026Z,3090
2023-04-25T13:42:13.031Z,3104.21
2023-04-25T13:43:13.066Z,2970
2023-04-25T13:44:13.096Z,2828.36
2023-04-25T13:45:13.150Z,2530
2023-04-25T13:46:29.904Z,2430
2023-04-25T13:47:13.333Z,2159.21
2023-04-25T13:48:13.266Z,2040
2023-04-25T13:49:13.681Z,2026.71
2023-04-25T13:50:13.370Z,1771.71
2023-04-25T13:51:13.407Z,1773.36
2023-04-25T13:52:13.436Z,1706.71
2023-04-25T13:53:13.475Z,1520
2023-04-25T13:54:13.545Z,1535.86
2023-04-25T13:55:13.549Z,1744.21
2023-04-25T13:56:13.603Z,1864.21
2023-04-25T13:57:13.626Z,1650
2023-04-25T13:58:13.683Z,1696.71
2023-04-25T13:59:13.701Z,1871.71
2023-04-25T14:00:13.740Z,1765.86
2023-04-25T14:01:13.877Z,1659.21
2023-04-25T14:02:13.853Z,1495
2023-04-25T14:03:13.938Z,1452.5
2023-04-25T14:04:13.919Z,1608.36
2023-04-25T14:05:13.988Z,1659.21
2023-04-25T14:06:13.980Z,1646.71
2023-04-25T14:07:14.011Z,1823.36
2023-04-25T14:08:14.056Z,1973.36
2023-04-25T14:09:14.116Z,2056.71
2023-04-25T14:10:14.131Z,2098.36
2023-04-25T14:11:14.185Z,2129.21
2023-04-25T14:12:14.241Z,2099.21
2023-04-25T14:13:14.258Z,2134.21
2023-04-25T14:14:14.290Z,2335.86
2023-04-25T14:15:14.334Z,2554.21
2023-04-25T14:16:14.412Z,2725
2023-04-25T14:17:14.417Z,2800.86
2023-04-25T14:18:14.458Z,2778.36
2023-04-25T14:19:14.499Z,2891.71
2023-04-25T14:20:14.539Z,2943.36
2023-04-25T14:21:14.575Z,3011.71
2023-04-25T14:22:14.622Z,3151.71
2023-04-25T14:23:14.699Z,3243.36
2023-04-25T14:24:14.705Z,3306.71
2023-04-25T14:25:14.734Z,3313.36
2023-04-25T14:26:14.776Z,3231.71
2023-04-25T14:27:14.821Z,3197.5
2023-04-25T14:28:14.906Z,3063.36
2023-04-25T14:29:14.894Z,2829.21
2023-04-25T14:30:14.926Z,2642.5
2023-04-25T14:31:15.015Z,2490
2023-04-25T14:32:15.003Z,2465
2023-04-25T14:33:15.067Z,2346.71
2023-04-25T14:34:15.089Z,2313.36
2023-04-25T14:35:15.128Z,2297.5
2023-04-25T14:36:15.157Z,2400.86
2023-04-25T14:37:15.209Z,2286.71
2023-04-25T14:38:15.244Z,2158.36
2023-04-25T14:39:15.293Z,2215.86
2023-04-25T14:40:15.328Z,2437.5
2023-04-25T14:41:15.374Z,2432.5
2023-04-25T14:42:15.426Z,2278.36
2023-04-25T14:43:15.450Z,2030.86
2023-04-25T14:44:15.487Z,1774.21
2023-04-25T14:45:15.533Z,1660.86
2023-04-25T14:46:15.623Z,1558.36
2023-04-25T14:47:15.612Z,1635.86
2023-04-25T14:48:15.816Z,1971.71
2023-04-25T14:49:15.705Z,2233.36
2023-04-25T14:50:15.732Z,2401.71
2023-04-25T14:51:15.810Z,2392.5
2023-04-25T14:52:15.827Z,2450.86
2023-04-25T14:53:15.870Z,2415
2023-04-25T14:54:15.902Z,2120.86
2023-04-25T14:55:15.937Z,1903.36
2023-04-25T14:56:15.990Z,1735
2023-04-25T14:57:16.020Z,1608.36
2023-04-25T14:58:16.052Z,1600.86
2023-04-25T14:59:16.103Z,1708.36
2023-04-25T15:00:16.142Z,1987.5
2023-04-25T15:01:16.206Z,2204.21
2023-04-25T15:02:16.247Z,2120.86
2023-04-25T15:03:16.448Z,1912.5
2023-04-25T15:04:16.456Z,1881.71
2023-04-25T15:05:16.322Z,2049.21
2023-04-25T15:06:16.386Z,2214.21
2023-04-25T15:07:18.216Z,2350.86
2023-04-25T15:08:16.441Z,2410
2023-04-25T15:09:16.486Z,2316.71
2023-04-25T15:10:16.534Z,2363.36
2023-04-25T15:11:16.573Z,2488.36
2023-04-25T15:12:16.633Z,2529.21
2023-04-25T15:13:16.648Z,2686.71
2023-04-25T15:14:16.699Z,2709.21
2023-04-25T15:15:26.013Z,2267.5
2023-04-25T15:16:16.859Z,1817.5
2023-04-25T15:17:16.841Z,1587.5
2023-04-25T15:18:16.904Z,1525.86
2023-04-25T15:19:16.905Z,1559.21
2023-04-25T15:20:16.952Z,1645
2023-04-25T15:21:16.979Z,1795
2023-04-25T15:22:17.037Z,2019.21
2023-04-25T15:23:17.080Z,2191.71
2023-04-25T15:24:17.135Z,2301.71
2023-04-25T15:25:17.166Z,2191.71
2023-04-25T15:26:17.178Z,2183.36
2023-04-25T15:27:17.224Z,2244.21
2023-04-25T15:28:17.269Z,2251.71
2023-04-25T15:29:17.297Z,2250
2023-04-25T15:30:17.367Z,2186.71
2023-04-25T15:31:17.398Z,2198.36
2023-04-25T15:32:17.479Z,2160.86
2023-04-25T15:33:17.463Z,2124.21
2023-04-25T15:34:17.502Z,2065
2023-04-25T15:35:17.539Z,1946.71
2023-04-25T15:36:17.578Z,1825.86
2023-04-25T15:37:17.608Z,1628.36
2023-04-25T15:38:17.673Z,1468.36
2023-04-25T15:39:17.683Z,1429.21
2023-04-25T15:40:17.843Z,1558.36
2023-04-25T15:41:17.770Z,1709.21
2023-04-25T15:42:17.815Z,1805
2023-04-25T15:43:17.878Z,1864.21
2023-04-25T15:44:17.903Z,1849.21
2023-04-25T15:45:18.022Z,1821.71
2023-04-25T15:46:18.053Z,1760
2023-04-25T15:47:18.023Z,1619.21
2023-04-25T15:48:18.052Z,1431.71
2023-04-25T15:49:18.091Z,1200
2023-04-25T15:50:18.148Z,1150
2023-04-25T15:51:18.189Z,1145.86
2023-04-25T15:52:18.213Z,1053.36
2023-04-25T15:53:18.265Z,1095.86
2023-04-25T15:54:18.320Z,1242.5
2023-04-25T15:55:18.338Z,1284.21
2023-04-25T15:56:18.363Z,1179.21
2023-04-25T15:57:18.407Z,960
2023-04-25T15:58:18.451Z,805.857
2023-04-25T15:59:18.589Z,746.714
2023-04-25T16:00:18.519Z,874.214
2023-04-25T16:01:18.610Z,935.857
2023-04-25T16:02:18.698Z,946.714
2023-04-25T16:03:18.831Z,1145.86
2023-04-25T16:04:18.819Z,1217.5
2023-04-25T16:05:18.916Z,1226.71
2023-04-25T16:06:18.780Z,1195.86
2023-04-25T16:07:18.814Z,1209.21
2023-04-25T16:08:18.869Z,1178.36
2023-04-25T16:09:18.911Z,1102.5
2023-04-25T16:10:18.947Z,1085
2023-04-25T16:11:18.978Z,1203.36
2023-04-25T16:12:19.034Z,1250
2023-04-25T16:13:19.064Z,1266.71
2023-04-25T16:14:19.105Z,1092.5
2023-04-25T16:15:19.129Z,998.357
2023-04-25T16:16:19.256Z,838.357
2023-04-25T16:17:19.228Z,738.357
2023-04-25T16:18:19.316Z,616.714
2023-04-25T16:19:19.296Z,551.714
2023-04-25T16:20:19.332Z,526.714
2023-04-25T16:21:19.373Z,527.5
2023-04-25T16:22:19.406Z,547.5
2023-04-25T16:23:19.447Z,535
2023-04-25T16:24:19.498Z,522.5
2023-04-25T16:25:19.532Z,539.214
2023-04-25T16:26:19.573Z,567.5
2023-04-25T16:27:19.615Z,562.5
2023-04-25T16:28:19.662Z,565
2023-04-25T16:29:19.691Z,582.5
2023-04-25T16:30:19.735Z,598.357
2023-04-25T16:31:19.813Z,615
2023-04-25T16:32:19.833Z,592.5
2023-04-25T16:33:19.962Z,656.714
2023-04-25T16:34:19.895Z,731.714
2023-04-25T16:35:19.952Z,779.214
2023-04-25T16:36:19.993Z,790.857
2023-04-25T16:37:20.022Z,874.214
2023-04-25T16:38:20.053Z,994.214
2023-04-25T16:39:20.099Z,1117.5
2023-04-25T16:40:20.144Z,1188.36
2023-04-25T16:41:20.202Z,1166.71
2023-04-25T16:42:20.215Z,1205.86
2023-04-25T16:43:20.250Z,1226.71
2023-04-25T16:44:20.292Z,1160.86
2023-04-25T16:45:20.355Z,1102.5
2023-04-25T16:46:20.428Z,1021.71
2023-04-25T16:47:20.700Z,916.714
2023-04-25T16:48:20.444Z,830
2023-04-25T16:49:20.479Z,710
2023-04-25T16:50:20.549Z,610.857
2023-04-25T16:51:20.563Z,557.5
2023-04-25T16:52:20.600Z,546.714
2023-04-25T16:53:20.635Z,541.714
2023-04-25T16:54:20.676Z,505
2023-04-25T16:55:20.719Z,481.714
2023-04-25T16:56:20.760Z,472.5
2023-04-25T16:57:20.798Z,467.5
2023-04-25T16:58:20.843Z,460
2023-04-25T16:59:20.890Z,449.214
2023-04-25T17:00:20.937Z,447.5
2023-04-25T17:01:21.041Z,472.5
2023-04-25T17:02:21.155Z,477.5
2023-04-25T17:03:21.166Z,489.214
2023-04-25T17:04:21.136Z,530.857
2023-04-25T17:05:21.135Z,606.714
2023-04-25T17:06:21.185Z,674.214
2023-04-25T17:07:21.250Z,735.857
2023-04-25T17:08:21.256Z,775
2023-04-25T17:09:21.298Z,714.214
2023-04-25T17:10:21.362Z,615
2023-04-25T17:11:21.375Z,588.357
2023-04-25T17:12:21.469Z,563.357
2023-04-25T17:13:21.459Z,568.357
2023-04-25T17:14:21.499Z,610
2023-04-25T17:15:21.544Z,595
2023-04-25T17:16:21.634Z,516.714
2023-04-25T17:17:21.625Z,460.857
2023-04-25T17:18:24.043Z,435.857
2023-04-25T17:19:21.719Z,413.357
2023-04-25T17:20:21.753Z,399.214
2023-04-25T17:21:21.787Z,402.5
2023-04-25T17:22:21.837Z,460
2023-04-25T17:23:21.873Z,603.357
2023-04-25T17:24:21.947Z,600
2023-04-25T17:25:21.954Z,625
2023-04-25T17:26:21.989Z,622.5
2023-04-25T17:27:22.045Z,587.5
2023-04-25T17:28:22.073Z,471.714
2023-04-25T17:29:22.111Z,394.214
2023-04-25T17:30:22.155Z,390
2023-04-25T17:31:22.228Z,435
2023-04-25T17:32:22.228Z,433.357
2023-04-25T17:33:22.293Z,430.857
2023-04-25T17:34:22.327Z,390.857
2023-04-25T17:35:22.346Z,378.357
2023-04-25T17:36:22.389Z,432.5
2023-04-25T17:37:22.439Z,536.714
2023-04-25T17:38:22.488Z,482.5
2023-04-25T17:39:22.513Z,375
2023-04-25T17:40:22.555Z,291.714
2023-04-25T17:41:22.604Z,264.214